Time,TemperatureF,DewpointF,PressureIn,WindDirection,WindDirectionDegrees,WindSpeedMPH,WindSpeedGustMPH,Humidity,HourlyPrecipIn,Conditions,Clouds,dailyrainin,SoftwareType,DateUTC
2013-01-21 00:00:00,26.1,6.6,29.88,WNW,292,4.0,9.0,43,0.00,,,-99.99,WeatherLink 5.5,2013-01-21 05:00:00,
2013-01-21 00:05:00,26.0,6.0,29.88,WNW,292,5.0,11.0,42,0.00,,,-99.99,WeatherLink 5.5,2013-01-21 05:05:00,
2013-01-21 00:10:00,26.0,6.0,29.88,WNW,292,6.0,20.0,42,0.00,,,-99.99,WeatherLink 5.5,2013-01-21 05:10:00,
2013-01-21 00:15:00,26.0,6.0,29.88,WNW,292,6.0,20.0,42,0.00,,,-99.99,WeatherLink 5.5,2013-01-21 05:15:00,
2013-01-21 00:20:00,25.8,6.3,29.88,WNW,292,4.0,11.0,43,0.00,,,-99.99,WeatherLink 5.5,2013-01-21 05:20:00,
2013-01-21 00:25:00,25.8,6.3,29.88,WNW,292,5.0,13.0,43,0.00,,,-99.99,WeatherLink 5.5,2013-01-21 05:25:00,
2013-01-21 00:30:00,25.8,6.3,29.88,WNW,292,5.0,13.0,43,0.00,,,-99.99,WeatherLink 5.5,2013-01-21 05:30:00,
2013-01-21 00:35:00,25.7,6.8,29.89,WNW,292,5.0,14.0,44,0.00,,,-99.99,WeatherLink 5.5,2013-01-21 05:35:00,
2013-01-21 00:40:00,25.5,6.6,29.89,WNW,292,3.0,9.0,44,0.00,,,-99.99,WeatherLink 5.5,2013-01-21 05:40:00,
2013-01-21 00:45:00,25.5,6.6,29.89,WNW,292,3.0,9.0,44,0.00,,,-99.99,WeatherLink 5.5,2013-01-21 05:45:00,
2013-01-21 00:50:00,25.4,4.9,29.90,WNW,292,6.0,16.0,41,0.00,,,-99.99,WeatherLink 5.5,2013-01-21 05:50:00,
2013-01-21 00:55:00,25.3,3.2,29.90,WNW,292,5.0,14.0,38,0.00,,,-99.99,WeatherLink 5.5,2013-01-21 05:55:00,
2013-01-21 01:00:00,25.3,3.2,29.90,WNW,292,5.0,14.0,38,0.00,,,-99.99,WeatherLink 5.5,2013-01-21 06:00:00,
2013-01-21 01:05:00,25.1,1.8,29.90,WSW,247,5.0,9.0,36,0.00,,,-99.99,WeatherLink 5.5,2013-01-21 06:05:00,
2013-01-21 01:10:00,25.1,0.6,29.90,WNW,292,6.0,17.0,34,0.00,,,-99.99,WeatherLink 5.5,2013-01-21 06:10:00,
2013-01-21 01:15:00,25.1,0.6,29.90,WNW,292,6.0,17.0,34,0.00,,,-99.99,WeatherLink 5.5,2013-01-21 06:15:00,
2013-01-21 01:20:00,24.8,1.0,29.91,NW,315,4.0,11.0,35,0.00,,,-99.99,WeatherLink 5.5,2013-01-21 06:20:00,
2013-01-21 01:25:00,24.7,1.5,29.91,WNW,292,6.0,14.0,36,0.00,,,-99.99,WeatherLink 5.5,2013-01-21 06:25:00,
2013-01-21 01:30:00,24.7,1.5,29.91,WNW,292,6.0,14.0,36,0.00,,,-99.99,WeatherLink 5.5,2013-01-21 06:30:00,
2013-01-21 01:35:00,24.4,1.8,29.92,WNW,292,4.0,9.0,37,0.00,,,-99.99,WeatherLink 5.5,2013-01-21 06:35:00,
2013-01-21 01:40:00,24.1,-0.3,29.92,WNW,292,7.0,20.0,34,0.00,,,-99.99,WeatherLink 5.5,2013-01-21 06:40:00,
2013-01-21 01:45:00,24.1,-0.3,29.92,WNW,292,7.0,20.0,34,0.00,,,-99.99,WeatherLink 5.5,2013-01-21 06:45:00,
2013-01-21 01:50:00,23.9,-0.4,29.93,WNW,292,6.0,16.0,34,0.00,,,-99.99,WeatherLink 5.5,2013-01-21 06:50:00,
2013-01-21 01:55:00,23.8,-1.2,29.93,West,270,7.0,16.0,33,0.00,,,-99.99,WeatherLink 5.5,2013-01-21 06:55:00,
2013-01-21 02:00:00,23.8,-1.2,29.93,West,270,7.0,16.0,33,0.00,,,-99.99,WeatherLink 5.5,2013-01-21 07:00:00,
2013-01-21 02:05:00,23.5,-0.8,29.94,WNW,292,5.0,13.0,34,0.00,,,-99.99,WeatherLink 5.5,2013-01-21 07:05:00,
2013-01-21 02:10:00,23.2,-1.1,29.94,WNW,292,5.0,13.0,34,0.00,,,-99.99,WeatherLink 5.5,2013-01-21 07:10:00,
2013-01-21 02:15:00,23.2,-1.1,29.94,WNW,292,5.0,13.0,34,0.00,,,-99.99,WeatherLink 5.5,2013-01-21 07:15:00,
2013-01-21 02:20:00,23.0,-1.2,29.95,WNW,292,7.0,18.0,34,0.00,,,-99.99,WeatherLink 5.5,2013-01-21 07:20:00,
2013-01-21 02:25:00,22.9,-1.3,29.95,WNW,292,4.0,11.0,34,0.00,,,-99.99,WeatherLink 5.5,2013-01-21 07:25:00,
2013-01-21 02:30:00,22.9,-1.3,29.95,WNW,292,4.0,11.0,34,0.00,,,-99.99,WeatherLink 5.5,2013-01-21 07:30:00,
2013-01-21 02:35:00,22.6,-1.0,29.96,West,270,2.0,6.0,35,0.00,,,-99.99,WeatherLink 5.5,2013-01-21 07:35:00,
2013-01-21 02:40:00,22.6,-1.0,29.96,WNW,292,5.0,13.0,35,0.00,,,-99.99,WeatherLink 5.5,2013-01-21 07:40:00,
2013-01-21 02:45:00,22.6,-1.0,29.96,WNW,292,5.0,13.0,35,0.00,,,-99.99,WeatherLink 5.5,2013-01-21 07:45:00,
2013-01-21 02:50:00,22.2,-1.3,29.96,WNW,292,2.0,8.0,35,0.00,,,-99.99,WeatherLink 5.5,2013-01-21 07:50:00,
2013-01-21 02:55:00,22.1,-1.4,29.96,WNW,292,1.0,6.0,35,0.00,,,-99.99,WeatherLink 5.5,2013-01-21 07:55:00,
2013-01-21 03:00:00,22.1,-1.4,29.96,WNW,292,1.0,6.0,35,0.00,,,-99.99,WeatherLink 5.5,2013-01-21 08:00:00,
2013-01-21 03:05:00,21.8,-1.1,29.97,West,270,2.0,7.0,36,0.00,,,-99.99,WeatherLink 5.5,2013-01-21 08:05:00,
2013-01-21 03:10:00,21.6,-1.3,29.97,WNW,292,2.0,7.0,36,0.00,,,-99.99,WeatherLink 5.5,2013-01-21 08:10:00,
2013-01-21 03:15:00,21.6,-1.3,29.97,WNW,292,2.0,7.0,36,0.00,,,-99.99,WeatherLink 5.5,2013-01-21 08:15:00,
2013-01-21 03:20:00,21.5,-1.4,29.97,WNW,292,3.0,7.0,36,0.00,,,-99.99,WeatherLink 5.5,2013-01-21 08:20:00,
2013-01-21 03:25:00,21.5,-1.4,29.97,West,270,4.0,10.0,36,0.00,,,-99.99,WeatherLink 5.5,2013-01-21 08:25:00,
2013-01-21 03:30:00,21.5,-1.4,29.97,West,270,4.0,10.0,36,0.00,,,-99.99,WeatherLink 5.5,2013-01-21 08:30:00,
2013-01-21 03:35:00,21.3,-2.8,29.97,WNW,292,5.0,13.0,34,0.00,,,-99.99,WeatherLink 5.5,2013-01-21 08:35:00,
2013-01-21 03:40:00,21.3,-2.8,29.97,West,270,3.0,10.0,34,0.00,,,-99.99,WeatherLink 5.5,2013-01-21 08:40:00,
2013-01-21 03:45:00,21.3,-2.8,29.97,West,270,3.0,10.0,34,0.00,,,-99.99,WeatherLink 5.5,2013-01-21 08:45:00,
2013-01-21 03:50:00,21.1,-3.6,29.97,WNW,292,2.0,8.0,33,0.00,,,-99.99,WeatherLink 5.5,2013-01-21 08:50:00,
2013-01-21 03:55:00,21.0,-3.7,29.97,West,270,2.0,8.0,33,0.00,,,-99.99,WeatherLink 5.5,2013-01-21 08:55:00,
2013-01-21 04:00:00,21.0,-3.7,29.97,West,270,2.0,8.0,33,0.00,,,-99.99,WeatherLink 5.5,2013-01-21 09:00:00,
2013-01-21 04:05:00,20.7,-3.3,29.98,West,270,1.0,4.0,34,0.00,,,-99.99,WeatherLink 5.5,2013-01-21 09:05:00,
2013-01-21 04:10:00,20.7,-3.3,29.98,North,-999,0.0,0.0,34,0.00,,,-99.99,WeatherLink 5.5,2013-01-21 09:10:00,
2013-01-21 04:15:00,20.7,-3.3,29.98,North,-999,0.0,0.0,34,0.00,,,-99.99,WeatherLink 5.5,2013-01-21 09:15:00,
2013-01-21 04:20:00,20.2,-0.3,29.98,North,-999,0.0,0.0,40,0.00,,,-99.99,WeatherLink 5.5,2013-01-21 09:20:00,
2013-01-21 04:25:00,19.9,-0.1,29.98,West,270,0.0,2.0,41,0.00,,,-99.99,WeatherLink 5.5,2013-01-21 09:25:00,
2013-01-21 04:30:00,19.9,-0.1,29.98,West,270,0.0,2.0,41,0.00,,,-99.99,WeatherLink 5.5,2013-01-21 09:30:00,
2013-01-21 04:35:00,19.6,-0.9,29.98,West,270,0.0,4.0,40,0.00,,,-99.99,WeatherLink 5.5,2013-01-21 09:35:00,
2013-01-21 04:40:00,19.6,-0.3,29.98,West,270,1.0,4.0,41,0.00,,,-99.99,WeatherLink 5.5,2013-01-21 09:40:00,
2013-01-21 04:45:00,19.6,-0.3,29.98,West,270,1.0,4.0,41,0.00,,,-99.99,WeatherLink 5.5,2013-01-21 09:45:00,
2013-01-21 04:50:00,19.2,-1.2,29.98,West,270,0.0,2.0,40,0.00,,,-99.99,WeatherLink 5.5,2013-01-21 09:50:00,
2013-01-21 04:55:00,19.1,-1.3,29.98,West,270,0.0,4.0,40,0.00,,,-99.99,WeatherLink 5.5,2013-01-21 09:55:00,
2013-01-21 05:00:00,19.1,-1.3,29.98,West,270,0.0,4.0,40,0.00,,,-99.99,WeatherLink 5.5,2013-01-21 10:00:00,
2013-01-21 05:05:00,18.8,-1.1,29.99,West,270,1.0,2.0,41,0.00,,,-99.99,WeatherLink 5.5,2013-01-21 10:05:00,
2013-01-21 05:10:00,18.6,-0.7,29.99,West,270,0.0,1.0,42,0.00,,,-99.99,WeatherLink 5.5,2013-01-21 10:10:00,
2013-01-21 05:15:00,18.6,-0.7,29.99,West,270,0.0,1.0,42,0.00,,,-99.99,WeatherLink 5.5,2013-01-21 10:15:00,
2013-01-21 05:20:00,18.5,-1.3,29.99,West,270,1.0,4.0,41,0.00,,,-99.99,WeatherLink 5.5,2013-01-21 10:20:00,
2013-01-21 05:25:00,18.5,-1.3,29.99,West,270,1.0,4.0,41,0.00,,,-99.99,WeatherLink 5.5,2013-01-21 10:25:00,
2013-01-21 05:30:00,18.5,-1.3,29.99,West,270,1.0,4.0,41,0.00,,,-99.99,WeatherLink 5.5,2013-01-21 10:30:00,
2013-01-21 05:35:00,18.5,-1.3,30.00,West,270,0.0,2.0,41,0.00,,,-99.99,WeatherLink 5.5,2013-01-21 10:35:00,
2013-01-21 05:40:00,18.3,-1.5,30.00,West,270,0.0,2.0,41,0.00,,,-99.99,WeatherLink 5.5,2013-01-21 10:40:00,
2013-01-21 05:45:00,18.3,-1.5,30.00,West,270,0.0,2.0,41,0.00,,,-99.99,WeatherLink 5.5,2013-01-21 10:45:00,
2013-01-21 05:50:00,18.0,-0.3,30.00,North,-999,0.0,0.0,44,0.00,,,-99.99,WeatherLink 5.5,2013-01-21 10:50:00,
2013-01-21 05:55:00,17.8,-0.5,30.00,North,-999,0.0,0.0,44,0.00,,,-99.99,WeatherLink 5.5,2013-01-21 10:55:00,
2013-01-21 06:00:00,17.8,-0.5,30.00,North,-999,0.0,0.0,44,0.00,,,-99.99,WeatherLink 5.5,2013-01-21 11:00:00,
2013-01-21 06:05:00,17.5,-0.3,30.01,North,-999,0.0,0.0,45,0.00,,,-99.99,WeatherLink 5.5,2013-01-21 11:05:00,
2013-01-21 06:10:00,17.4,0.1,30.01,North,-999,0.0,0.0,46,0.00,,,-99.99,WeatherLink 5.5,2013-01-21 11:10:00,
2013-01-21 06:15:00,17.4,0.1,30.01,North,-999,0.0,0.0,46,0.00,,,-99.99,WeatherLink 5.5,2013-01-21 11:15:00,
2013-01-21 06:20:00,17.0,2.0,30.01,North,-999,0.0,0.0,51,0.00,,,-99.99,WeatherLink 5.5,2013-01-21 11:20:00,
2013-01-21 06:25:00,16.9,3.1,30.01,North,-999,0.0,0.0,54,0.00,,,-99.99,WeatherLink 5.5,2013-01-21 11:25:00,
2013-01-21 06:30:00,16.9,3.1,30.01,North,-999,0.0,0.0,54,0.00,,,-99.99,WeatherLink 5.5,2013-01-21 11:30:00,
2013-01-21 06:35:00,16.4,2.2,30.01,North,-999,0.0,0.0,53,0.00,,,-99.99,WeatherLink 5.5,2013-01-21 11:35:00,
2013-01-21 06:40:00,16.4,3.0,30.01,North,-999,0.0,0.0,55,0.00,,,-99.99,WeatherLink 5.5,2013-01-21 11:40:00,
2013-01-21 06:45:00,16.4,3.0,30.01,North,-999,0.0,0.0,55,0.00,,,-99.99,WeatherLink 5.5,2013-01-21 11:45:00,
2013-01-21 06:50:00,16.2,3.2,30.02,North,-999,0.0,0.0,56,0.00,,,-99.99,WeatherLink 5.5,2013-01-21 11:50:00,
2013-01-21 06:55:00,16.1,2.4,30.02,North,-999,0.0,0.0,54,0.00,,,-99.99,WeatherLink 5.5,2013-01-21 11:55:00,
2013-01-21 07:00:00,16.1,2.4,30.02,North,-999,0.0,0.0,54,0.00,,,-99.99,WeatherLink 5.5,2013-01-21 12:00:00,
2013-01-21 07:05:00,16.2,2.4,30.02,West,270,0.0,1.0,54,0.00,,,-99.99,WeatherLink 5.5,2013-01-21 12:05:00,
2013-01-21 07:10:00,16.2,1.6,30.02,West,270,0.0,2.0,52,0.00,,,-99.99,WeatherLink 5.5,2013-01-21 12:10:00,
2013-01-21 07:15:00,16.2,1.6,30.02,West,270,0.0,2.0,52,0.00,,,-99.99,WeatherLink 5.5,2013-01-21 12:15:00,
2013-01-21 07:20:00,16.2,0.8,30.02,West,270,0.0,4.0,50,0.00,,,-99.99,WeatherLink 5.5,2013-01-21 12:20:00,
2013-01-21 07:25:00,16.4,1.0,30.02,West,270,0.0,1.0,50,0.00,,,-99.99,WeatherLink 5.5,2013-01-21 12:25:00,
2013-01-21 07:30:00,16.4,1.0,30.02,West,270,0.0,1.0,50,0.00,,,-99.99,WeatherLink 5.5,2013-01-21 12:30:00,
2013-01-21 07:35:00,16.7,1.3,30.03,North,-999,0.0,0.0,50,0.00,,,-99.99,WeatherLink 5.5,2013-01-21 12:35:00,
2013-01-21 07:40:00,16.7,1.3,30.03,North,-999,0.0,0.0,50,0.00,,,-99.99,WeatherLink 5.5,2013-01-21 12:40:00,
2013-01-21 07:45:00,16.7,1.3,30.03,North,-999,0.0,0.0,50,0.00,,,-99.99,WeatherLink 5.5,2013-01-21 12:45:00,
2013-01-21 07:50:00,16.9,1.4,30.03,South,180,0.0,2.0,50,0.00,,,-99.99,WeatherLink 5.5,2013-01-21 12:50:00,
2013-01-21 07:55:00,17.0,3.2,30.03,North,-999,0.0,0.0,54,0.00,,,-99.99,WeatherLink 5.5,2013-01-21 12:55:00,
2013-01-21 08:00:00,17.0,3.2,30.03,North,-999,0.0,0.0,54,0.00,,,-99.99,WeatherLink 5.5,2013-01-21 13:00:00,
2013-01-21 08:05:00,17.5,2.4,30.03,SSW,202,0.0,2.0,51,0.00,,,-99.99,WeatherLink 5.5,2013-01-21 13:05:00,
2013-01-21 08:10:00,17.8,2.7,30.03,SW,225,0.0,4.0,51,0.00,,,-99.99,WeatherLink 5.5,2013-01-21 13:10:00,
2013-01-21 08:15:00,17.8,2.7,30.03,SW,225,0.0,4.0,51,0.00,,,-99.99,WeatherLink 5.5,2013-01-21 13:15:00,
2013-01-21 08:20:00,18.5,1.6,30.03,South,180,1.0,4.0,47,0.00,,,-99.99,WeatherLink 5.5,2013-01-21 13:20:00,
2013-01-21 08:25:00,18.8,1.4,30.03,SSW,202,0.0,6.0,46,0.00,,,-99.99,WeatherLink 5.5,2013-01-21 13:25:00,
2013-01-21 08:30:00,18.8,1.4,30.03,SSW,202,0.0,6.0,46,0.00,,,-99.99,WeatherLink 5.5,2013-01-21 13:30:00,
2013-01-21 08:35:00,19.2,1.3,30.03,SSW,202,1.0,4.0,45,0.00,,,-99.99,WeatherLink 5.5,2013-01-21 13:35:00,
2013-01-21 08:40:00,19.6,1.7,30.03,West,270,1.0,6.0,45,0.00,,,-99.99,WeatherLink 5.5,2013-01-21 13:40:00,
2013-01-21 08:45:00,19.6,1.7,30.03,West,270,1.0,6.0,45,0.00,,,-99.99,WeatherLink 5.5,2013-01-21 13:45:00,
2013-01-21 08:50:00,20.3,1.8,30.03,SW,225,0.0,2.0,44,0.00,,,-99.99,WeatherLink 5.5,2013-01-21 13:50:00,
2013-01-21 08:55:00,20.7,2.2,30.03,SW,225,0.0,4.0,44,0.00,,,-99.99,WeatherLink 5.5,2013-01-21 13:55:00,
2013-01-21 09:00:00,20.7,2.2,30.03,SW,225,0.0,4.0,44,0.00,,,-99.99,WeatherLink 5.5,2013-01-21 14:00:00,
2013-01-21 09:05:00,21.0,-0.1,30.04,West,270,3.0,9.0,39,0.00,,,-99.99,WeatherLink 5.5,2013-01-21 14:05:00,
2013-01-21 09:10:00,21.3,0.1,30.04,West,270,3.0,7.0,39,0.00,,,-99.99,WeatherLink 5.5,2013-01-21 14:10:00,
2013-01-21 09:15:00,21.3,0.1,30.04,West,270,3.0,7.0,39,0.00,,,-99.99,WeatherLink 5.5,2013-01-21 14:15:00,
2013-01-21 09:20:00,21.9,-0.4,30.04,WNW,292,3.0,8.0,37,0.00,,,-99.99,WeatherLink 5.5,2013-01-21 14:20:00,
2013-01-21 09:25:00,22.4,0.0,30.04,WNW,292,0.0,4.0,37,0.00,,,-99.99,WeatherLink 5.5,2013-01-21 14:25:00,
2013-01-21 09:30:00,22.4,0.0,30.04,WNW,292,0.0,4.0,37,0.00,,,-99.99,WeatherLink 5.5,2013-01-21 14:30:00,
2013-01-21 09:35:00,23.3,0.2,30.05,WSW,247,1.0,6.0,36,0.00,,,-99.99,WeatherLink 5.5,2013-01-21 14:35:00,
2013-01-21 09:40:00,23.6,-0.1,30.05,West,270,2.0,8.0,35,0.00,,,-99.99,WeatherLink 5.5,2013-01-21 14:40:00,
2013-01-21 09:45:00,23.6,-0.1,30.05,West,270,2.0,8.0,35,0.00,,,-99.99,WeatherLink 5.5,2013-01-21 14:45:00,
2013-01-21 09:50:00,23.8,-1.2,30.05,SSE,157,2.0,7.0,33,0.00,,,-99.99,WeatherLink 5.5,2013-01-21 14:50:00,
2013-01-21 09:55:00,24.2,0.4,30.05,South,180,1.0,6.0,35,0.00,,,-99.99,WeatherLink 5.5,2013-01-21 14:55:00,
2013-01-21 10:00:00,24.2,0.4,30.05,South,180,1.0,6.0,35,0.00,,,-99.99,WeatherLink 5.5,2013-01-21 15:00:00,
2013-01-21 10:05:00,25.1,0.0,30.05,WNW,292,1.0,7.0,33,0.00,,,-99.99,WeatherLink 5.5,2013-01-21 15:05:00,
2013-01-21 10:10:00,25.5,1.0,30.05,SSE,157,1.0,7.0,34,0.00,,,-99.99,WeatherLink 5.5,2013-01-21 15:10:00,
2013-01-21 10:15:00,25.5,1.0,30.05,SSE,157,1.0,7.0,34,0.00,,,-99.99,WeatherLink 5.5,2013-01-21 15:15:00,
2013-01-21 10:20:00,25.3,-1.9,30.05,WNW,292,2.0,7.0,30,0.00,,,-99.99,WeatherLink 5.5,2013-01-21 15:20:00,
2013-01-21 10:25:00,25.4,-0.4,30.05,WSW,247,1.0,7.0,32,0.00,,,-99.99,WeatherLink 5.5,2013-01-21 15:25:00,
2013-01-21 10:30:00,25.4,-0.4,30.05,WSW,247,1.0,7.0,32,0.00,,,-99.99,WeatherLink 5.5,2013-01-21 15:30:00,
2013-01-21 10:35:00,25.3,-0.5,30.04,South,180,1.0,7.0,32,0.00,,,-99.99,WeatherLink 5.5,2013-01-21 15:35:00,
2013-01-21 10:40:00,25.3,-1.2,30.04,WNW,292,2.0,8.0,31,0.00,,,-99.99,WeatherLink 5.5,2013-01-21 15:40:00,
2013-01-21 10:45:00,25.3,-1.2,30.04,WNW,292,2.0,8.0,31,0.00,,,-99.99,WeatherLink 5.5,2013-01-21 15:45:00,
2013-01-21 10:50:00,25.3,0.2,30.03,WNW,292,3.0,8.0,33,0.00,,,-99.99,WeatherLink 5.5,2013-01-21 15:50:00,
2013-01-21 10:55:00,25.1,-1.3,30.03,WNW,292,2.0,8.0,31,0.00,,,-99.99,WeatherLink 5.5,2013-01-21 15:55:00,
2013-01-21 11:00:00,25.1,-1.3,30.03,WNW,292,2.0,8.0,31,0.00,,,-99.99,WeatherLink 5.5,2013-01-21 16:00:00,
2013-01-21 11:05:00,25.3,-0.5,30.01,WNW,292,3.0,11.0,32,0.00,,,-99.99,WeatherLink 5.5,2013-01-21 16:05:00,
2013-01-21 11:10:00,25.3,-1.2,30.01,West,270,3.0,10.0,31,0.00,,,-99.99,WeatherLink 5.5,2013-01-21 16:10:00,
2013-01-21 11:15:00,25.3,-1.2,30.01,West,270,3.0,10.0,31,0.00,,,-99.99,WeatherLink 5.5,2013-01-21 16:15:00,
2013-01-21 11:20:00,25.5,-1.0,30.01,West,270,2.0,7.0,31,0.00,,,-99.99,WeatherLink 5.5,2013-01-21 16:20:00,
2013-01-21 11:25:00,25.5,-1.0,30.01,WNW,292,4.0,10.0,31,0.00,,,-99.99,WeatherLink 5.5,2013-01-21 16:25:00,
2013-01-21 11:30:00,25.5,-1.0,30.01,WNW,292,4.0,10.0,31,0.00,,,-99.99,WeatherLink 5.5,2013-01-21 16:30:00,
2013-01-21 11:35:00,25.5,-1.0,30.00,SSW,202,4.0,11.0,31,0.00,,,-99.99,WeatherLink 5.5,2013-01-21 16:35:00,
2013-01-21 11:40:00,25.4,-1.1,30.00,West,270,2.0,14.0,31,0.00,,,-99.99,WeatherLink 5.5,2013-01-21 16:40:00,
2013-01-21 11:45:00,25.4,-1.1,30.00,West,270,2.0,14.0,31,0.00,,,-99.99,WeatherLink 5.5,2013-01-21 16:45:00,
2013-01-21 11:50:00,25.7,-0.8,29.99,West,270,1.0,8.0,31,0.00,,,-99.99,WeatherLink 5.5,2013-01-21 16:50:00,
2013-01-21 11:55:00,26.0,-1.3,29.99,West,270,1.0,6.0,30,0.00,,,-99.99,WeatherLink 5.5,2013-01-21 16:55:00,
2013-01-21 12:00:00,26.0,-1.3,29.99,West,270,1.0,6.0,30,0.00,,,-99.99,WeatherLink 5.5,2013-01-21 17:00:00,
2013-01-21 12:05:00,25.7,-0.8,29.98,WSW,247,2.0,8.0,31,0.00,,,-99.99,WeatherLink 5.5,2013-01-21 17:05:00,
2013-01-21 12:10:00,25.7,-0.1,29.98,WNW,292,0.0,2.0,32,0.00,,,-99.99,WeatherLink 5.5,2013-01-21 17:10:00,
2013-01-21 12:15:00,25.7,-0.1,29.98,WNW,292,0.0,2.0,32,0.00,,,-99.99,WeatherLink 5.5,2013-01-21 17:15:00,
2013-01-21 12:20:00,25.5,-0.3,29.97,WSW,247,0.0,7.0,32,0.00,,,-99.99,WeatherLink 5.5,2013-01-21 17:20:00,
2013-01-21 12:25:00,25.7,-0.8,29.97,WSW,247,1.0,6.0,31,0.00,,,-99.99,WeatherLink 5.5,2013-01-21 17:25:00,
2013-01-21 12:30:00,25.7,-0.8,29.97,WSW,247,1.0,6.0,31,0.00,,,-99.99,WeatherLink 5.5,2013-01-21 17:30:00,
2013-01-21 12:35:00,25.7,0.5,29.97,West,270,1.0,4.0,33,0.00,,,-99.99,WeatherLink 5.5,2013-01-21 17:35:00,
2013-01-21 12:40:00,25.7,0.5,29.97,South,180,0.0,2.0,33,0.00,,,-99.99,WeatherLink 5.5,2013-01-21 17:40:00,
2013-01-21 12:45:00,25.7,0.5,29.97,South,180,0.0,2.0,33,0.00,,,-99.99,WeatherLink 5.5,2013-01-21 17:45:00,
2013-01-21 12:50:00,26.0,0.8,29.95,WSW,247,0.0,6.0,33,0.00,,,-99.99,WeatherLink 5.5,2013-01-21 17:50:00,
2013-01-21 12:55:00,26.1,0.9,29.95,SSW,202,1.0,8.0,33,0.00,,,-99.99,WeatherLink 5.5,2013-01-21 17:55:00,
2013-01-21 13:00:00,26.1,0.9,29.95,SSW,202,1.0,8.0,33,0.00,,,-99.99,WeatherLink 5.5,2013-01-21 18:00:00,
2013-01-21 13:05:00,26.3,1.0,29.95,West,270,0.0,6.0,33,0.00,,,-99.99,WeatherLink 5.5,2013-01-21 18:05:00,
2013-01-21 13:10:00,26.3,0.4,29.95,WNW,292,3.0,11.0,32,0.00,,,-99.99,WeatherLink 5.5,2013-01-21 18:10:00,
2013-01-21 13:15:00,26.3,0.4,29.95,WNW,292,3.0,11.0,32,0.00,,,-99.99,WeatherLink 5.5,2013-01-21 18:15:00,
2013-01-21 13:20:00,26.3,1.0,29.95,WSW,247,1.0,4.0,33,0.00,,,-99.99,WeatherLink 5.5,2013-01-21 18:20:00,
2013-01-21 13:25:00,26.3,0.4,29.95,SSE,157,2.0,7.0,32,0.00,,,-99.99,WeatherLink 5.5,2013-01-21 18:25:00,
2013-01-21 13:30:00,26.3,0.4,29.95,SSE,157,2.0,7.0,32,0.00,,,-99.99,WeatherLink 5.5,2013-01-21 18:30:00,
2013-01-21 13:35:00,26.1,0.9,29.94,SSW,202,1.0,4.0,33,0.00,,,-99.99,WeatherLink 5.5,2013-01-21 18:35:00,
2013-01-21 13:40:00,26.1,0.9,29.94,West,270,1.0,7.0,33,0.00,,,-99.99,WeatherLink 5.5,2013-01-21 18:40:00,
2013-01-21 13:45:00,26.1,0.9,29.94,West,270,1.0,7.0,33,0.00,,,-99.99,WeatherLink 5.5,2013-01-21 18:45:00,
2013-01-21 13:50:00,-999.0,-99.9,29.94,NW,315,0.0,1.0,33,0.00,,,-99.99,WeatherLink 5.5,2013-01-21 18:50:00,
2013-01-21 13:55:00,26.1,0.9,29.94,WSW,247,2.0,4.0,33,0.00,,,-99.99,WeatherLink 5.5,2013-01-21 18:55:00,
2013-01-21 14:00:00,26.1,0.9,29.94,WSW,247,2.0,4.0,33,0.00,,,-99.99,WeatherLink 5.5,2013-01-21 19:00:00,
2013-01-21 14:05:00,26.0,0.8,29.94,WNW,292,2.0,4.0,33,0.00,,,-99.99,WeatherLink 5.5,2013-01-21 19:05:00,
2013-01-21 14:10:00,-999.0,-99.9,29.94,North,-999,0.0,0.0,33,0.00,,,-99.99,WeatherLink 5.5,2013-01-21 19:10:00,
2013-01-21 14:15:00,-999.0,-99.9,29.94,North,-999,0.0,0.0,33,0.00,,,-99.99,WeatherLink 5.5,2013-01-21 19:15:00,
2013-01-21 14:20:00,-999.0,-99.9,29.93,South,180,6.0,6.0,34,0.00,,,-99.99,WeatherLink 5.5,2013-01-21 19:20:00,
2013-01-21 14:25:00,26.0,2.0,29.93,SSW,202,2.0,7.0,35,0.00,,,-99.99,WeatherLink 5.5,2013-01-21 19:25:00,
2013-01-21 14:30:00,26.0,2.0,29.93,SSW,202,2.0,7.0,35,0.00,,,-99.99,WeatherLink 5.5,2013-01-21 19:30:00,
2013-01-21 14:35:00,26.0,2.0,29.93,SSE,157,0.0,6.0,35,0.00,,,-99.99,WeatherLink 5.5,2013-01-21 19:35:00,
2013-01-21 14:40:00,26.1,2.1,29.93,North,-999,0.0,0.0,35,0.00,,,-99.99,WeatherLink 5.5,2013-01-21 19:40:00,
2013-01-21 14:45:00,26.1,2.1,29.93,North,-999,0.0,0.0,35,0.00,,,-99.99,WeatherLink 5.5,2013-01-21 19:45:00,
2013-01-21 14:50:00,26.3,2.3,29.93,SW,225,0.0,2.0,35,0.00,,,-99.99,WeatherLink 5.5,2013-01-21 19:50:00,
2013-01-21 14:55:00,26.3,2.9,29.93,WSW,247,0.0,1.0,36,0.00,,,-99.99,WeatherLink 5.5,2013-01-21 19:55:00,
2013-01-21 15:00:00,26.3,2.9,29.93,WSW,247,0.0,1.0,36,0.00,,,-99.99,WeatherLink 5.5,2013-01-21 20:00:00,
2013-01-21 15:05:00,26.3,2.3,29.92,South,180,2.0,8.0,35,0.00,,,-99.99,WeatherLink 5.5,2013-01-21 20:05:00,
2013-01-21 15:10:00,26.1,2.1,29.92,WNW,292,1.0,6.0,35,0.00,,,-99.99,WeatherLink 5.5,2013-01-21 20:10:00,
2013-01-21 15:15:00,26.1,2.1,29.92,WNW,292,1.0,6.0,35,0.00,,,-99.99,WeatherLink 5.5,2013-01-21 20:15:00,
2013-01-21 15:20:00,26.0,2.0,29.92,SSW,202,1.0,4.0,35,0.00,,,-99.99,WeatherLink 5.5,2013-01-21 20:20:00,
2013-01-21 15:25:00,26.0,3.2,29.92,WNW,292,0.0,2.0,37,0.00,,,-99.99,WeatherLink 5.5,2013-01-21 20:25:00,
2013-01-21 15:30:00,26.0,3.2,29.92,WNW,292,0.0,2.0,37,0.00,,,-99.99,WeatherLink 5.5,2013-01-21 20:30:00,
2013-01-21 15:35:00,25.8,3.1,29.92,WSW,247,0.0,2.0,37,0.00,,,-99.99,WeatherLink 5.5,2013-01-21 20:35:00,
2013-01-21 15:40:00,25.8,1.9,29.92,WNW,292,1.0,6.0,35,0.00,,,-99.99,WeatherLink 5.5,2013-01-21 20:40:00,
2013-01-21 15:45:00,25.8,1.9,29.92,WNW,292,1.0,6.0,35,0.00,,,-99.99,WeatherLink 5.5,2013-01-21 20:45:00,
2013-01-21 15:50:00,25.7,3.0,29.91,North,-999,0.0,0.0,37,0.00,,,-99.99,WeatherLink 5.5,2013-01-21 20:50:00,
2013-01-21 15:55:00,25.8,3.6,29.91,SSW,202,0.0,2.0,38,0.00,,,-99.99,WeatherLink 5.5,2013-01-21 20:55:00,
2013-01-21 16:00:00,25.8,3.6,29.91,SSW,202,0.0,2.0,38,0.00,,,-99.99,WeatherLink 5.5,2013-01-21 21:00:00,
2013-01-21 16:05:00,25.7,3.0,29.91,North,-999,0.0,0.0,37,0.00,,,-99.99,WeatherLink 5.5,2013-01-21 21:05:00,
2013-01-21 16:10:00,25.7,3.0,29.91,South,180,0.0,2.0,37,0.00,,,-99.99,WeatherLink 5.5,2013-01-21 21:10:00,
2013-01-21 16:15:00,25.7,3.0,29.91,South,180,0.0,2.0,37,0.00,,,-99.99,WeatherLink 5.5,2013-01-21 21:15:00,
2013-01-21 16:20:00,25.3,4.3,29.90,SE,135,2.0,8.0,40,0.00,,,-99.99,WeatherLink 5.5,2013-01-21 21:20:00,
2013-01-21 16:25:00,25.1,4.7,29.90,SSW,202,2.0,7.0,41,0.00,,,-99.99,WeatherLink 5.5,2013-01-21 21:25:00,
2013-01-21 16:30:00,25.1,4.7,29.90,SSW,202,2.0,7.0,41,0.00,,,-99.99,WeatherLink 5.5,2013-01-21 21:30:00,
2013-01-21 16:35:00,25.1,5.2,29.90,SSW,202,1.0,6.0,42,0.00,,,-99.99,WeatherLink 5.5,2013-01-21 21:35:00,
2013-01-21 16:40:00,25.0,5.6,29.90,SW,225,0.0,4.0,43,0.00,,,-99.99,WeatherLink 5.5,2013-01-21 21:40:00,
2013-01-21 16:45:00,25.0,5.6,29.90,SW,225,0.0,4.0,43,0.00,,,-99.99,WeatherLink 5.5,2013-01-21 21:45:00,
2013-01-21 16:50:00,25.0,5.6,29.91,SW,225,0.0,2.0,43,0.00,,,-99.99,WeatherLink 5.5,2013-01-21 21:50:00,
2013-01-21 16:55:00,25.0,6.1,29.91,SW,225,0.0,1.0,44,0.00,,,-99.99,WeatherLink 5.5,2013-01-21 21:55:00,
2013-01-21 17:00:00,25.0,6.1,29.91,SW,225,0.0,1.0,44,0.00,,,-99.99,WeatherLink 5.5,2013-01-21 22:00:00,
2013-01-21 17:05:00,25.0,6.6,29.90,South,180,1.0,8.0,45,0.00,,,-99.99,WeatherLink 5.5,2013-01-21 22:05:00,
2013-01-21 17:10:00,24.7,8.2,29.90,South,180,2.0,6.0,49,0.00,,,-99.99,WeatherLink 5.5,2013-01-21 22:10:00,
2013-01-21 17:15:00,24.7,8.2,29.90,South,180,2.0,6.0,49,0.00,,,-99.99,WeatherLink 5.5,2013-01-21 22:15:00,
2013-01-21 17:20:00,24.5,8.9,29.90,WSW,247,1.0,2.0,51,0.00,,,-99.99,WeatherLink 5.5,2013-01-21 22:20:00,
2013-01-21 17:25:00,24.4,8.8,29.90,South,180,0.0,1.0,51,0.00,,,-99.99,WeatherLink 5.5,2013-01-21 22:25:00,
2013-01-21 17:30:00,24.4,8.8,29.90,South,180,0.0,1.0,51,0.00,,,-99.99,WeatherLink 5.5,2013-01-21 22:30:00,
2013-01-21 17:35:00,24.1,8.6,29.90,SW,225,2.0,4.0,51,0.00,,,-99.99,WeatherLink 5.5,2013-01-21 22:35:00,
2013-01-21 17:40:00,23.9,8.4,29.90,South,180,0.0,1.0,51,0.00,,,-99.99,WeatherLink 5.5,2013-01-21 22:40:00,
2013-01-21 17:45:00,23.9,8.4,29.90,South,180,0.0,1.0,51,0.00,,,-99.99,WeatherLink 5.5,2013-01-21 22:45:00,
2013-01-21 17:50:00,23.5,12.4,29.90,South,180,0.0,2.0,62,0.00,,,-99.99,WeatherLink 5.5,2013-01-21 22:50:00,
2013-01-21 17:55:00,23.3,13.3,29.90,South,180,0.0,2.0,65,0.00,,,-99.99,WeatherLink 5.5,2013-01-21 22:55:00,
2013-01-21 18:00:00,23.3,13.3,29.90,South,180,0.0,2.0,65,0.00,,,-99.99,WeatherLink 5.5,2013-01-21 23:00:00,
2013-01-21 18:05:00,23.0,13.7,29.90,SSW,202,1.0,4.0,67,0.00,,,-99.99,WeatherLink 5.5,2013-01-21 23:05:00,
2013-01-21 18:10:00,22.9,14.2,29.90,SSW,202,0.0,2.0,69,0.00,,,-99.99,WeatherLink 5.5,2013-01-21 23:10:00,
2013-01-21 18:15:00,22.9,14.2,29.90,SSW,202,0.0,2.0,69,0.00,,,-99.99,WeatherLink 5.5,2013-01-21 23:15:00,
2013-01-21 18:20:00,22.6,14.9,29.91,South,180,1.0,2.0,72,0.00,,,-99.99,WeatherLink 5.5,2013-01-21 23:20:00,
2013-01-21 18:25:00,22.4,15.1,29.91,South,180,0.0,2.0,73,0.00,,,-99.99,WeatherLink 5.5,2013-01-21 23:25:00,
2013-01-21 18:30:00,22.4,15.1,29.91,South,180,0.0,2.0,73,0.00,,,-99.99,WeatherLink 5.5,2013-01-21 23:30:00,
2013-01-21 18:35:00,22.4,15.7,29.91,North,-999,0.0,0.0,75,0.00,,,-99.99,WeatherLink 5.5,2013-01-21 23:35:00,
2013-01-21 18:40:00,22.4,15.7,29.91,North,-999,0.0,0.0,75,0.00,,,-99.99,WeatherLink 5.5,2013-01-21 23:40:00,
2013-01-21 18:45:00,22.4,15.7,29.91,North,-999,0.0,0.0,75,0.00,,,-99.99,WeatherLink 5.5,2013-01-21 23:45:00,
2013-01-21 18:50:00,22.2,15.8,29.91,North,-999,0.0,0.0,76,0.00,,,-99.99,WeatherLink 5.5,2013-01-21 23:50:00,
2013-01-21 18:55:00,22.2,16.1,29.91,North,-999,0.0,0.0,77,0.00,,,-99.99,WeatherLink 5.5,2013-01-21 23:55:00,
2013-01-21 19:00:00,22.2,16.1,29.91,North,-999,0.0,0.0,77,0.00,,,-99.99,WeatherLink 5.5,2013-01-22 00:00:00,
2013-01-21 19:05:00,22.1,16.3,29.90,North,-999,0.0,0.0,78,0.00,,,-99.99,WeatherLink 5.5,2013-01-22 00:05:00,
2013-01-21 19:10:00,22.1,16.3,29.90,North,-999,0.0,0.0,78,0.00,,,-99.99,WeatherLink 5.5,2013-01-22 00:10:00,
2013-01-21 19:15:00,22.1,16.3,29.90,North,-999,0.0,0.0,78,0.00,,,-99.99,WeatherLink 5.5,2013-01-22 00:15:00,
2013-01-21 19:20:00,22.1,16.6,29.89,North,-999,0.0,0.0,79,0.00,,,-99.99,WeatherLink 5.5,2013-01-22 00:20:00,
2013-01-21 19:25:00,22.1,16.6,29.89,North,-999,0.0,0.0,79,0.00,,,-99.99,WeatherLink 5.5,2013-01-22 00:25:00,
2013-01-21 19:30:00,22.1,16.6,29.89,North,-999,0.0,0.0,79,0.00,,,-99.99,WeatherLink 5.5,2013-01-22 00:30:00,
2013-01-21 19:35:00,21.9,16.4,29.89,North,-999,0.0,0.0,79,0.00,,,-99.99,WeatherLink 5.5,2013-01-22 00:35:00,
2013-01-21 19:40:00,21.9,16.7,29.89,North,-999,0.0,0.0,80,0.00,,,-99.99,WeatherLink 5.5,2013-01-22 00:40:00,
2013-01-21 19:45:00,21.9,16.7,29.89,North,-999,0.0,0.0,80,0.00,,,-99.99,WeatherLink 5.5,2013-01-22 00:45:00,
2013-01-21 19:50:00,21.9,16.7,29.88,North,-999,0.0,0.0,80,0.00,,,-99.99,WeatherLink 5.5,2013-01-22 00:50:00,
2013-01-21 19:55:00,21.9,16.7,29.88,North,-999,0.0,0.0,80,0.00,,,-99.99,WeatherLink 5.5,2013-01-22 00:55:00,
2013-01-21 20:00:00,21.9,16.7,29.88,North,-999,0.0,0.0,80,0.00,,,-99.99,WeatherLink 5.5,2013-01-22 01:00:00,
2013-01-21 20:05:00,21.8,16.6,29.88,North,-999,0.0,0.0,80,0.00,,,-99.99,WeatherLink 5.5,2013-01-22 01:05:00,
2013-01-21 20:10:00,21.8,16.6,29.88,North,-999,0.0,0.0,80,0.00,,,-99.99,WeatherLink 5.5,2013-01-22 01:10:00,
2013-01-21 20:15:00,21.8,16.6,29.88,North,-999,0.0,0.0,80,0.00,,,-99.99,WeatherLink 5.5,2013-01-22 01:15:00,
2013-01-21 20:20:00,21.8,16.6,29.88,North,-999,0.0,0.0,80,0.00,,,-99.99,WeatherLink 5.5,2013-01-22 01:20:00,
2013-01-21 20:25:00,21.8,16.6,29.88,North,-999,0.0,0.0,80,0.00,,,-99.99,WeatherLink 5.5,2013-01-22 01:25:00,
2013-01-21 20:30:00,21.8,16.6,29.88,North,-999,0.0,0.0,80,0.00,,,-99.99,WeatherLink 5.5,2013-01-22 01:30:00,
2013-01-21 20:35:00,21.8,16.6,29.87,North,-999,0.0,0.0,80,0.00,,,-99.99,WeatherLink 5.5,2013-01-22 01:35:00,
2013-01-21 20:40:00,21.8,16.9,29.87,North,-999,0.0,0.0,81,0.00,,,-99.99,WeatherLink 5.5,2013-01-22 01:40:00,
2013-01-21 20:45:00,21.8,16.9,29.87,North,-999,0.0,0.0,81,0.00,,,-99.99,WeatherLink 5.5,2013-01-22 01:45:00,
2013-01-21 20:50:00,22.1,17.4,29.88,North,-999,0.0,0.0,82,0.00,,,-99.99,WeatherLink 5.5,2013-01-22 01:50:00,
2013-01-21 20:55:00,22.1,17.4,29.88,North,-999,0.0,0.0,82,0.00,,,-99.99,WeatherLink 5.5,2013-01-22 01:55:00,
2013-01-21 21:00:00,22.1,17.4,29.88,North,-999,0.0,0.0,82,0.00,,,-99.99,WeatherLink 5.5,2013-01-22 02:00:00,
2013-01-21 21:05:00,21.9,17.2,29.86,North,-999,0.0,0.0,82,0.00,,,-99.99,WeatherLink 5.5,2013-01-22 02:05:00,
2013-01-21 21:10:00,21.8,17.2,29.86,North,-999,0.0,0.0,82,0.00,,,-99.99,WeatherLink 5.5,2013-01-22 02:10:00,
2013-01-21 21:15:00,21.8,17.2,29.86,North,-999,0.0,0.0,82,0.00,,,-99.99,WeatherLink 5.5,2013-01-22 02:15:00,
2013-01-21 21:20:00,21.5,16.6,29.86,North,-999,0.0,0.0,81,0.00,,,-99.99,WeatherLink 5.5,2013-01-22 02:20:00,
2013-01-21 21:25:00,21.5,16.6,29.86,North,-999,0.0,0.0,81,0.00,,,-99.99,WeatherLink 5.5,2013-01-22 02:25:00,
2013-01-21 21:30:00,21.5,16.6,29.86,North,-999,0.0,0.0,81,0.00,,,-99.99,WeatherLink 5.5,2013-01-22 02:30:00,
2013-01-21 21:35:00,21.3,16.4,29.84,North,-999,0.0,0.0,81,0.00,,,-99.99,WeatherLink 5.5,2013-01-22 02:35:00,
2013-01-21 21:40:00,21.3,16.4,29.84,North,-999,0.0,0.0,81,0.00,,,-99.99,WeatherLink 5.5,2013-01-22 02:40:00,
2013-01-21 21:45:00,21.3,16.4,29.84,North,-999,0.0,0.0,81,0.00,,,-99.99,WeatherLink 5.5,2013-01-22 02:45:00,
2013-01-21 21:50:00,21.0,16.1,29.83,North,-999,0.0,0.0,81,0.00,,,-99.99,WeatherLink 5.5,2013-01-22 02:50:00,
2013-01-21 21:55:00,20.8,15.9,29.83,North,-999,0.0,0.0,81,0.00,,,-99.99,WeatherLink 5.5,2013-01-22 02:55:00,
2013-01-21 22:00:00,20.8,15.9,29.83,North,-999,0.0,0.0,81,0.00,,,-99.99,WeatherLink 5.5,2013-01-22 03:00:00,
2013-01-21 22:05:00,20.3,15.4,29.83,North,-999,0.0,0.0,81,0.00,,,-99.99,WeatherLink 5.5,2013-01-22 03:05:00,
2013-01-21 22:10:00,20.3,15.7,29.83,North,-999,0.0,0.0,82,0.00,,,-99.99,WeatherLink 5.5,2013-01-22 03:10:00,
2013-01-21 22:15:00,20.3,15.7,29.83,North,-999,0.0,0.0,82,0.00,,,-99.99,WeatherLink 5.5,2013-01-22 03:15:00,
2013-01-21 22:20:00,20.3,15.7,29.83,North,-999,0.0,0.0,82,0.00,,,-99.99,WeatherLink 5.5,2013-01-22 03:20:00,
2013-01-21 22:25:00,20.3,15.7,29.83,North,-999,0.0,0.0,82,0.00,,,-99.99,WeatherLink 5.5,2013-01-22 03:25:00,
2013-01-21 22:30:00,20.3,15.7,29.83,North,-999,0.0,0.0,82,0.00,,,-99.99,WeatherLink 5.5,2013-01-22 03:30:00,
2013-01-21 22:35:00,20.5,16.2,29.82,North,-999,0.0,0.0,83,0.00,,,-99.99,WeatherLink 5.5,2013-01-22 03:35:00,
2013-01-21 22:40:00,20.5,16.2,29.82,North,-999,0.0,0.0,83,0.00,,,-99.99,WeatherLink 5.5,2013-01-22 03:40:00,
2013-01-21 22:45:00,20.5,16.2,29.82,North,-999,0.0,0.0,83,0.00,,,-99.99,WeatherLink 5.5,2013-01-22 03:45:00,
2013-01-21 22:50:00,20.3,16.0,29.80,North,-999,0.0,0.0,83,0.00,,,-99.99,WeatherLink 5.5,2013-01-22 03:50:00,
2013-01-21 22:55:00,20.3,16.0,29.80,North,-999,0.0,0.0,83,0.00,,,-99.99,WeatherLink 5.5,2013-01-22 03:55:00,
2013-01-21 23:00:00,20.3,16.0,29.80,North,-999,0.0,0.0,83,0.00,,,-99.99,WeatherLink 5.5,2013-01-22 04:00:00,
2013-01-21 23:05:00,20.3,16.0,29.80,North,-999,0.0,0.0,83,0.00,,,-99.99,WeatherLink 5.5,2013-01-22 04:05:00,
2013-01-21 23:10:00,20.3,16.0,29.80,SSE,157,0.0,2.0,83,0.00,,,-99.99,WeatherLink 5.5,2013-01-22 04:10:00,
2013-01-21 23:15:00,20.3,16.0,29.80,SSE,157,0.0,2.0,83,0.00,,,-99.99,WeatherLink 5.5,2013-01-22 04:15:00,
2013-01-21 23:20:00,20.5,16.2,29.79,North,-999,0.0,0.0,83,0.00,,,-99.99,WeatherLink 5.5,2013-01-22 04:20:00,
2013-01-21 23:25:00,20.5,16.2,29.79,North,-999,0.0,0.0,83,0.00,,,-99.99,WeatherLink 5.5,2013-01-22 04:25:00,
2013-01-21 23:30:00,20.5,16.2,29.79,North,-999,0.0,0.0,83,0.00,,,-99.99,WeatherLink 5.5,2013-01-22 04:30:00,
2013-01-21 23:35:00,20.7,16.4,29.78,North,-999,0.0,0.0,83,0.00,,,-99.99,WeatherLink 5.5,2013-01-22 04:35:00,
2013-01-21 23:40:00,20.7,16.4,29.78,North,-999,0.0,0.0,83,0.00,,,-99.99,WeatherLink 5.5,2013-01-22 04:40:00,
2013-01-21 23:45:00,20.7,16.4,29.78,North,-999,0.0,0.0,83,0.00,,,-99.99,WeatherLink 5.5,2013-01-22 04:45:00,
2013-01-21 23:50:00,20.8,16.5,29.76,North,-999,0.0,0.0,83,0.00,,,-99.99,WeatherLink 5.5,2013-01-22 04:50:00,
2013-01-21 23:55:00,21.0,16.6,29.76,North,-999,0.0,0.0,83,0.00,,,-99.99,WeatherLink 5.5,2013-01-22 04:55:00,